sensor_id;sensor_type;location;lat;lon;timestamp;P1;durP1;ratioP1;P2;durP2;ratioP2
51566;SDS011;37657;53.182;5.638;2022-12-29T00:02:10;7.72;;;5.68;;
51566;SDS011;37657;53.182;5.638;2022-12-29T00:04:36;6.57;;;4.82;;
51566;SDS011;37657;53.182;5.638;2022-12-29T00:07:02;7.22;;;5.47;;
51566;SDS011;37657;53.182;5.638;2022-12-29T00:09:29;6.90;;;4.97;;
51566;SDS011;37657;53.182;5.638;2022-12-29T00:11:55;6.07;;;5.47;;
51566;SDS011;37657;53.182;5.638;2022-12-29T00:14:21;6.07;;;4.93;;
51566;SDS011;37657;53.182;5.638;2022-12-29T00:17:05;6.55;;;4.90;;
51566;SDS011;37657;53.182;5.638;2022-12-29T00:19:31;7.15;;;5.13;;
51566;SDS011;37657;53.182;5.638;2022-12-29T00:22:15;5.35;;;4.05;;
51566;SDS011;37657;53.182;5.638;2022-12-29T00:24:59;7.20;;;4.72;;
51566;SDS011;37657;53.182;5.638;2022-12-29T00:27:43;8.70;;;5.47;;
51566;SDS011;37657;53.182;5.638;2022-12-29T00:30:28;7.07;;;4.85;;
51566;SDS011;37657;53.182;5.638;2022-12-29T00:33:13;5.32;;;4.72;;
51566;SDS011;37657;53.182;5.638;2022-12-29T00:36:07;5.40;;;4.80;;
51566;SDS011;37657;53.182;5.638;2022-12-29T00:38:39;5.70;;;4.60;;
51566;SDS011;37657;53.182;5.638;2022-12-29T00:41:26;6.22;;;5.63;;
51566;SDS011;37657;53.182;5.638;2022-12-29T00:44:10;7.72;;;6.78;;
51566;SDS011;37657;53.182;5.638;2022-12-29T00:46:38;4.82;;;4.30;;
51566;SDS011;37657;53.182;5.638;2022-12-29T00:49:05;5.78;;;4.38;;
51566;SDS011;37657;53.182;5.638;2022-12-29T00:51:51;7.00;;;6.30;;
51566;SDS011;37657;53.182;5.638;2022-12-29T00:54:17;7.35;;;6.32;;
51566;SDS011;37657;53.182;5.638;2022-12-29T00:56:45;6.18;;;4.85;;
51566;SDS011;37657;53.182;5.638;2022-12-29T00:59:14;7.97;;;6.53;;
51566;SDS011;37657;53.182;5.638;2022-12-29T01:01:40;7.53;;;6.10;;
51566;SDS011;37657;53.182;5.638;2022-12-29T01:04:07;8.93;;;6.70;;
51566;SDS011;37657;53.182;5.638;2022-12-29T01:06:33;7.88;;;6.25;;
51566;SDS011;37657;53.182;5.638;2022-12-29T01:09:00;10.25;;;6.65;;
51566;SDS011;37657;53.182;5.638;2022-12-29T01:11:44;7.20;;;6.53;;
51566;SDS011;37657;53.182;5.638;2022-12-29T01:14:10;11.60;;;7.55;;
51566;SDS011;37657;53.182;5.638;2022-12-29T01:16:35;6.70;;;5.53;;
51566;SDS011;37657;53.182;5.638;2022-12-29T01:19:01;7.32;;;6.63;;
51566;SDS011;37657;53.182;5.638;2022-12-29T01:21:27;7.15;;;5.88;;
51566;SDS011;37657;53.182;5.638;2022-12-29T01:23:53;8.15;;;6.55;;
51566;SDS011;37657;53.182;5.638;2022-12-29T01:26:18;8.93;;;5.97;;
51566;SDS011;37657;53.182;5.638;2022-12-29T01:28:44;8.75;;;5.88;;
51566;SDS011;37657;53.182;5.638;2022-12-29T01:31:11;7.32;;;6.00;;
51566;SDS011;37657;53.182;5.638;2022-12-29T01:33:38;7.05;;;6.25;;
51566;SDS011;37657;53.182;5.638;2022-12-29T01:36:04;8.30;;;6.60;;
51566;SDS011;37657;53.182;5.638;2022-12-29T01:38:35;9.27;;;5.93;;
51566;SDS011;37657;53.182;5.638;2022-12-29T01:41:02;9.68;;;6.22;;
51566;SDS011;37657;53.182;5.638;2022-12-29T01:43:38;7.32;;;6.70;;
51566;SDS011;37657;53.182;5.638;2022-12-29T01:46:04;8.35;;;6.68;;
51566;SDS011;37657;53.182;5.638;2022-12-29T01:48:42;6.75;;;6.15;;
51566;SDS011;37657;53.182;5.638;2022-12-29T01:51:08;7.95;;;6.32;;
51566;SDS011;37657;53.182;5.638;2022-12-29T01:53:34;8.07;;;6.30;;
51566;SDS011;37657;53.182;5.638;2022-12-29T01:56:03;8.88;;;5.57;;
51566;SDS011;37657;53.182;5.638;2022-12-29T01:58:34;6.30;;;5.15;;
51566;SDS011;37657;53.182;5.638;2022-12-29T02:01:04;7.18;;;5.55;;
51566;SDS011;37657;53.182;5.638;2022-12-29T02:03:30;10.90;;;6.13;;
51566;SDS011;37657;53.182;5.638;2022-12-29T02:08:26;7.53;;;6.03;;
51566;SDS011;37657;53.182;5.638;2022-12-29T02:10:53;6.80;;;6.10;;
51566;SDS011;37657;53.182;5.638;2022-12-29T02:13:20;6.25;;;4.60;;
51566;SDS011;37657;53.182;5.638;2022-12-29T02:41:16;4.18;;;2.10;;
51566;SDS011;37657;53.182;5.638;2022-12-29T02:47:14;2.33;;;1.48;;
51566;SDS011;37657;53.182;5.638;2022-12-29T02:52:40;2.42;;;1.65;;
51566;SDS011;37657;53.182;5.638;2022-12-29T02:55:14;2.60;;;2.28;;
51566;SDS011;37657;53.182;5.638;2022-12-29T02:57:40;4.38;;;1.95;;
51566;SDS011;37657;53.182;5.638;2022-12-29T03:00:07;3.92;;;2.25;;
51566;SDS011;37657;53.182;5.638;2022-12-29T03:02:54;3.35;;;2.50;;
51566;SDS011;37657;53.182;5.638;2022-12-29T03:08:21;6.80;;;3.17;;
51566;SDS011;37657;53.182;5.638;2022-12-29T03:16:32;7.05;;;3.63;;
51566;SDS011;37657;53.182;5.638;2022-12-29T03:19:16;8.93;;;3.63;;
51566;SDS011;37657;53.182;5.638;2022-12-29T03:21:49;10.45;;;3.78;;
51566;SDS011;37657;53.182;5.638;2022-12-29T03:24:40;7.78;;;3.53;;
51566;SDS011;37657;53.182;5.638;2022-12-29T03:27:10;10.05;;;3.22;;
51566;SDS011;37657;53.182;5.638;2022-12-29T03:29:41;8.10;;;3.50;;
51566;SDS011;37657;53.182;5.638;2022-12-29T03:32:12;9.00;;;3.40;;
51566;SDS011;37657;53.182;5.638;2022-12-29T03:34:39;11.00;;;4.22;;
51566;SDS011;37657;53.182;5.638;2022-12-29T03:37:26;9.63;;;3.28;;
51566;SDS011;37657;53.182;5.638;2022-12-29T03:40:00;6.45;;;3.42;;
51566;SDS011;37657;53.182;5.638;2022-12-29T03:42:27;5.38;;;3.25;;
51566;SDS011;37657;53.182;5.638;2022-12-29T03:44:55;9.20;;;4.15;;
51566;SDS011;37657;53.182;5.638;2022-12-29T03:47:22;8.05;;;3.63;;
51566;SDS011;37657;53.182;5.638;2022-12-29T03:49:48;9.65;;;3.58;;
51566;SDS011;37657;53.182;5.638;2022-12-29T03:52:14;10.20;;;3.25;;
51566;SDS011;37657;53.182;5.638;2022-12-29T03:54:39;8.02;;;3.53;;
51566;SDS011;37657;53.182;5.638;2022-12-29T03:57:05;7.85;;;3.17;;
51566;SDS011;37657;53.182;5.638;2022-12-29T03:59:30;5.15;;;2.88;;
51566;SDS011;37657;53.182;5.638;2022-12-29T04:01:56;5.45;;;3.28;;
51566;SDS011;37657;53.182;5.638;2022-12-29T04:04:21;6.70;;;3.70;;
51566;SDS011;37657;53.182;5.638;2022-12-29T04:06:47;9.23;;;3.15;;
51566;SDS011;37657;53.182;5.638;2022-12-29T04:09:12;8.65;;;3.72;;
51566;SDS011;37657;53.182;5.638;2022-12-29T04:11:38;6.43;;;2.97;;
51566;SDS011;37657;53.182;5.638;2022-12-29T04:14:04;9.77;;;3.10;;
51566;SDS011;37657;53.182;5.638;2022-12-29T04:16:29;8.35;;;3.47;;
51566;SDS011;37657;53.182;5.638;2022-12-29T04:18:55;9.90;;;3.45;;
51566;SDS011;37657;53.182;5.638;2022-12-29T04:21:20;7.50;;;4.43;;
51566;SDS011;37657;53.182;5.638;2022-12-29T04:23:46;16.45;;;4.43;;
51566;SDS011;37657;53.182;5.638;2022-12-29T04:26:11;11.18;;;4.57;;
51566;SDS011;37657;53.182;5.638;2022-12-29T04:28:37;7.82;;;3.95;;
51566;SDS011;37657;53.182;5.638;2022-12-29T04:31:03;15.50;;;4.95;;
51566;SDS011;37657;53.182;5.638;2022-12-29T04:33:29;16.92;;;5.40;;
51566;SDS011;37657;53.182;5.638;2022-12-29T04:35:55;12.07;;;4.90;;
51566;SDS011;37657;53.182;5.638;2022-12-29T04:38:21;12.35;;;4.82;;
51566;SDS011;37657;53.182;5.638;2022-12-29T04:40:48;12.73;;;5.53;;
51566;SDS011;37657;53.182;5.638;2022-12-29T04:43:14;19.48;;;5.28;;
51566;SDS011;37657;53.182;5.638;2022-12-29T04:45:46;11.35;;;4.65;;
51566;SDS011;37657;53.182;5.638;2022-12-29T04:48:12;8.68;;;4.30;;
51566;SDS011;37657;53.182;5.638;2022-12-29T04:50:39;16.35;;;6.00;;
51566;SDS011;37657;53.182;5.638;2022-12-29T04:53:05;22.80;;;6.32;;
51566;SDS011;37657;53.182;5.638;2022-12-29T04:55:31;13.27;;;5.93;;
51566;SDS011;37657;53.182;5.638;2022-12-29T04:57:57;17.17;;;6.20;;
51566;SDS011;37657;53.182;5.638;2022-12-29T05:00:22;19.08;;;5.80;;
51566;SDS011;37657;53.182;5.638;2022-12-29T05:02:48;16.33;;;6.43;;
51566;SDS011;37657;53.182;5.638;2022-12-29T05:05:14;13.45;;;5.22;;
51566;SDS011;37657;53.182;5.638;2022-12-29T05:07:40;11.52;;;5.78;;
51566;SDS011;37657;53.182;5.638;2022-12-29T05:10:06;13.82;;;6.65;;
51566;SDS011;37657;53.182;5.638;2022-12-29T05:12:32;9.63;;;5.05;;
51566;SDS011;37657;53.182;5.638;2022-12-29T05:14:59;17.02;;;6.70;;
51566;SDS011;37657;53.182;5.638;2022-12-29T05:17:25;27.35;;;7.68;;
51566;SDS011;37657;53.182;5.638;2022-12-29T05:19:51;20.00;;;7.13;;
51566;SDS011;37657;53.182;5.638;2022-12-29T05:22:16;9.50;;;5.28;;
51566;SDS011;37657;53.182;5.638;2022-12-29T05:24:42;12.45;;;6.20;;
51566;SDS011;37657;53.182;5.638;2022-12-29T05:27:08;14.07;;;6.10;;
51566;SDS011;37657;53.182;5.638;2022-12-29T05:29:34;12.77;;;6.10;;
51566;SDS011;37657;53.182;5.638;2022-12-29T05:31:59;11.95;;;5.55;;
51566;SDS011;37657;53.182;5.638;2022-12-29T05:34:25;11.95;;;5.20;;
51566;SDS011;37657;53.182;5.638;2022-12-29T05:36:50;28.40;;;6.45;;
51566;SDS011;37657;53.182;5.638;2022-12-29T05:39:16;23.85;;;6.50;;
51566;SDS011;37657;53.182;5.638;2022-12-29T05:41:42;11.60;;;5.22;;
51566;SDS011;37657;53.182;5.638;2022-12-29T05:44:07;10.32;;;6.22;;
51566;SDS011;37657;53.182;5.638;2022-12-29T05:46:34;12.48;;;5.38;;
51566;SDS011;37657;53.182;5.638;2022-12-29T05:49:00;15.57;;;5.13;;
51566;SDS011;37657;53.182;5.638;2022-12-29T05:51:25;14.93;;;5.82;;
51566;SDS011;37657;53.182;5.638;2022-12-29T05:53:51;10.30;;;5.20;;
51566;SDS011;37657;53.182;5.638;2022-12-29T05:56:16;17.63;;;6.65;;
51566;SDS011;37657;53.182;5.638;2022-12-29T05:58:42;24.55;;;6.53;;
51566;SDS011;37657;53.182;5.638;2022-12-29T06:01:07;10.98;;;5.28;;
51566;SDS011;37657;53.182;5.638;2022-12-29T06:03:33;17.52;;;5.32;;
51566;SDS011;37657;53.182;5.638;2022-12-29T06:05:58;17.00;;;6.82;;
51566;SDS011;37657;53.182;5.638;2022-12-29T06:08:24;12.73;;;5.80;;
51566;SDS011;37657;53.182;5.638;2022-12-29T06:10:50;19.17;;;5.72;;
51566;SDS011;37657;53.182;5.638;2022-12-29T06:13:15;17.63;;;6.28;;
51566;SDS011;37657;53.182;5.638;2022-12-29T06:15:41;11.50;;;5.50;;
51566;SDS011;37657;53.182;5.638;2022-12-29T06:18:07;14.88;;;7.50;;
51566;SDS011;37657;53.182;5.638;2022-12-29T06:20:32;19.15;;;6.47;;
51566;SDS011;37657;53.182;5.638;2022-12-29T06:22:58;14.70;;;5.28;;
51566;SDS011;37657;53.182;5.638;2022-12-29T06:25:24;18.05;;;6.35;;
51566;SDS011;37657;53.182;5.638;2022-12-29T06:27:49;19.70;;;8.25;;
51566;SDS011;37657;53.182;5.638;2022-12-29T06:30:15;13.25;;;4.78;;
51566;SDS011;37657;53.182;5.638;2022-12-29T06:32:42;11.43;;;6.30;;
51566;SDS011;37657;53.182;5.638;2022-12-29T06:35:07;14.32;;;6.20;;
51566;SDS011;37657;53.182;5.638;2022-12-29T06:37:33;15.63;;;6.32;;
51566;SDS011;37657;53.182;5.638;2022-12-29T06:39:59;23.52;;;7.38;;
51566;SDS011;37657;53.182;5.638;2022-12-29T06:42:24;14.15;;;7.22;;
51566;SDS011;37657;53.182;5.638;2022-12-29T06:44:50;20.73;;;7.53;;
51566;SDS011;37657;53.182;5.638;2022-12-29T06:47:16;19.15;;;6.05;;
51566;SDS011;37657;53.182;5.638;2022-12-29T06:49:41;18.02;;;6.40;;
51566;SDS011;37657;53.182;5.638;2022-12-29T06:52:07;10.98;;;5.68;;
51566;SDS011;37657;53.182;5.638;2022-12-29T06:54:32;15.40;;;7.28;;
51566;SDS011;37657;53.182;5.638;2022-12-29T06:56:58;15.23;;;6.30;;
51566;SDS011;37657;53.182;5.638;2022-12-29T06:59:24;10.68;;;6.38;;
51566;SDS011;37657;53.182;5.638;2022-12-29T07:01:50;12.05;;;6.30;;
51566;SDS011;37657;53.182;5.638;2022-12-29T07:04:16;18.13;;;6.88;;
51566;SDS011;37657;53.182;5.638;2022-12-29T07:06:42;15.48;;;6.43;;
51566;SDS011;37657;53.182;5.638;2022-12-29T07:09:08;18.70;;;6.88;;
51566;SDS011;37657;53.182;5.638;2022-12-29T07:11:33;19.30;;;8.55;;
51566;SDS011;37657;53.182;5.638;2022-12-29T07:13:59;36.05;;;7.72;;
51566;SDS011;37657;53.182;5.638;2022-12-29T07:16:25;13.35;;;7.15;;
51566;SDS011;37657;53.182;5.638;2022-12-29T07:18:51;17.10;;;7.10;;
51566;SDS011;37657;53.182;5.638;2022-12-29T07:21:17;9.57;;;5.32;;
51566;SDS011;37657;53.182;5.638;2022-12-29T07:23:43;15.52;;;6.78;;
51566;SDS011;37657;53.182;5.638;2022-12-29T07:26:10;19.17;;;8.25;;
51566;SDS011;37657;53.182;5.638;2022-12-29T07:28:37;18.35;;;7.93;;
51566;SDS011;37657;53.182;5.638;2022-12-29T07:31:03;18.85;;;7.70;;
51566;SDS011;37657;53.182;5.638;2022-12-29T07:33:29;11.43;;;5.93;;
51566;SDS011;37657;53.182;5.638;2022-12-29T07:35:56;20.65;;;7.38;;
51566;SDS011;37657;53.182;5.638;2022-12-29T07:38:21;19.40;;;6.55;;
51566;SDS011;37657;53.182;5.638;2022-12-29T07:40:47;14.70;;;7.57;;
51566;SDS011;37657;53.182;5.638;2022-12-29T07:43:13;14.68;;;6.50;;
51566;SDS011;37657;53.182;5.638;2022-12-29T07:45:38;21.52;;;7.95;;
51566;SDS011;37657;53.182;5.638;2022-12-29T07:48:04;15.55;;;6.60;;
51566;SDS011;37657;53.182;5.638;2022-12-29T07:50:32;16.35;;;6.47;;
51566;SDS011;37657;53.182;5.638;2022-12-29T07:52:59;15.73;;;7.10;;
51566;SDS011;37657;53.182;5.638;2022-12-29T07:55:24;22.38;;;7.80;;
51566;SDS011;37657;53.182;5.638;2022-12-29T07:57:52;24.27;;;7.18;;
51566;SDS011;37657;53.182;5.638;2022-12-29T08:00:18;15.82;;;6.97;;
51566;SDS011;37657;53.182;5.638;2022-12-29T08:02:44;17.40;;;6.18;;
51566;SDS011;37657;53.182;5.638;2022-12-29T08:05:10;13.07;;;5.97;;
51566;SDS011;37657;53.182;5.638;2022-12-29T08:07:35;15.20;;;6.80;;
51566;SDS011;37657;53.182;5.638;2022-12-29T08:10:01;16.77;;;6.50;;
51566;SDS011;37657;53.182;5.638;2022-12-29T08:12:27;28.58;;;9.15;;
51566;SDS011;37657;53.182;5.638;2022-12-29T08:14:53;18.70;;;8.13;;
51566;SDS011;37657;53.182;5.638;2022-12-29T08:17:18;17.33;;;8.13;;
51566;SDS011;37657;53.182;5.638;2022-12-29T08:19:44;23.08;;;7.13;;
51566;SDS011;37657;53.182;5.638;2022-12-29T08:22:10;27.85;;;9.20;;
51566;SDS011;37657;53.182;5.638;2022-12-29T08:24:35;47.00;;;8.13;;
51566;SDS011;37657;53.182;5.638;2022-12-29T08:27:01;21.40;;;7.50;;
51566;SDS011;37657;53.182;5.638;2022-12-29T08:29:27;18.27;;;8.02;;
51566;SDS011;37657;53.182;5.638;2022-12-29T08:31:52;16.60;;;6.88;;
51566;SDS011;37657;53.182;5.638;2022-12-29T08:34:18;20.25;;;7.78;;
51566;SDS011;37657;53.182;5.638;2022-12-29T08:36:43;17.17;;;8.57;;
51566;SDS011;37657;53.182;5.638;2022-12-29T08:39:09;20.17;;;8.35;;
51566;SDS011;37657;53.182;5.638;2022-12-29T08:41:34;22.58;;;7.45;;
51566;SDS011;37657;53.182;5.638;2022-12-29T08:44:00;13.70;;;7.70;;
51566;SDS011;37657;53.182;5.638;2022-12-29T08:46:25;21.67;;;8.90;;
51566;SDS011;37657;53.182;5.638;2022-12-29T08:48:52;37.78;;;8.75;;
51566;SDS011;37657;53.182;5.638;2022-12-29T08:51:18;21.75;;;8.57;;
51566;SDS011;37657;53.182;5.638;2022-12-29T08:53:44;17.73;;;6.70;;
51566;SDS011;37657;53.182;5.638;2022-12-29T08:56:10;17.90;;;7.05;;
51566;SDS011;37657;53.182;5.638;2022-12-29T08:58:36;15.15;;;6.45;;
51566;SDS011;37657;53.182;5.638;2022-12-29T09:01:02;23.20;;;8.90;;
51566;SDS011;37657;53.182;5.638;2022-12-29T09:03:28;25.90;;;9.05;;
51566;SDS011;37657;53.182;5.638;2022-12-29T09:05:54;18.63;;;8.75;;
51566;SDS011;37657;53.182;5.638;2022-12-29T09:08:20;20.83;;;7.35;;
51566;SDS011;37657;53.182;5.638;2022-12-29T09:10:46;19.83;;;8.93;;
51566;SDS011;37657;53.182;5.638;2022-12-29T09:13:13;14.35;;;6.97;;
51566;SDS011;37657;53.182;5.638;2022-12-29T09:15:39;24.40;;;9.48;;
51566;SDS011;37657;53.182;5.638;2022-12-29T09:18:06;20.30;;;9.50;;
51566;SDS011;37657;53.182;5.638;2022-12-29T09:20:33;29.38;;;9.43;;
51566;SDS011;37657;53.182;5.638;2022-12-29T09:22:59;27.00;;;9.45;;
51566;SDS011;37657;53.182;5.638;2022-12-29T09:25:25;21.42;;;9.55;;
51566;SDS011;37657;53.182;5.638;2022-12-29T09:27:51;19.65;;;8.23;;
51566;SDS011;37657;53.182;5.638;2022-12-29T09:30:18;18.35;;;7.78;;
51566;SDS011;37657;53.182;5.638;2022-12-29T09:32:45;16.40;;;7.90;;
51566;SDS011;37657;53.182;5.638;2022-12-29T09:35:11;19.70;;;8.23;;
51566;SDS011;37657;53.182;5.638;2022-12-29T09:37:36;18.80;;;8.00;;
51566;SDS011;37657;53.182;5.638;2022-12-29T09:40:02;19.30;;;9.30;;
51566;SDS011;37657;53.182;5.638;2022-12-29T09:42:40;20.77;;;7.65;;
51566;SDS011;37657;53.182;5.638;2022-12-29T09:45:20;16.88;;;8.23;;
51566;SDS011;37657;53.182;5.638;2022-12-29T09:47:54;12.80;;;6.20;;
51566;SDS011;37657;53.182;5.638;2022-12-29T09:50:22;16.50;;;5.75;;
51566;SDS011;37657;53.182;5.638;2022-12-29T09:52:54;19.55;;;8.98;;
51566;SDS011;37657;53.182;5.638;2022-12-29T09:55:39;18.63;;;8.75;;
51566;SDS011;37657;53.182;5.638;2022-12-29T10:00:52;13.73;;;7.53;;
51566;SDS011;37657;53.182;5.638;2022-12-29T10:03:23;19.02;;;6.63;;
51566;SDS011;37657;53.182;5.638;2022-12-29T10:08:44;23.63;;;8.88;;
51566;SDS011;37657;53.182;5.638;2022-12-29T10:17:11;15.30;;;7.90;;
51566;SDS011;37657;53.182;5.638;2022-12-29T10:19:55;31.95;;;9.75;;
51566;SDS011;37657;53.182;5.638;2022-12-29T10:27:58;19.38;;;9.00;;
51566;SDS011;37657;53.182;5.638;2022-12-29T10:30:28;26.17;;;7.82;;
51566;SDS011;37657;53.182;5.638;2022-12-29T10:32:55;22.35;;;8.80;;
51566;SDS011;37657;53.182;5.638;2022-12-29T10:35:24;23.10;;;7.25;;
51566;SDS011;37657;53.182;5.638;2022-12-29T10:40:33;14.20;;;6.97;;
51566;SDS011;37657;53.182;5.638;2022-12-29T10:46:18;20.45;;;7.70;;
51566;SDS011;37657;53.182;5.638;2022-12-29T10:48:58;34.30;;;8.60;;
51566;SDS011;37657;53.182;5.638;2022-12-29T10:51:24;20.63;;;6.80;;
51566;SDS011;37657;53.182;5.638;2022-12-29T10:56:36;14.52;;;6.40;;
51566;SDS011;37657;53.182;5.638;2022-12-29T10:59:27;19.60;;;6.78;;
51566;SDS011;37657;53.182;5.638;2022-12-29T11:04:34;16.27;;;7.40;;
51566;SDS011;37657;53.182;5.638;2022-12-29T11:07:20;16.52;;;7.25;;
51566;SDS011;37657;53.182;5.638;2022-12-29T11:09:46;13.75;;;5.68;;
51566;SDS011;37657;53.182;5.638;2022-12-29T11:12:20;12.70;;;5.78;;
51566;SDS011;37657;53.182;5.638;2022-12-29T11:14:52;14.60;;;5.68;;
51566;SDS011;37657;53.182;5.638;2022-12-29T11:22:52;12.02;;;4.65;;
51566;SDS011;37657;53.182;5.638;2022-12-29T11:25:17;10.27;;;5.78;;
51566;SDS011;37657;53.182;5.638;2022-12-29T11:27:54;18.17;;;6.50;;
51566;SDS011;37657;53.182;5.638;2022-12-29T11:30:49;10.23;;;5.20;;
51566;SDS011;37657;53.182;5.638;2022-12-29T11:33:27;14.07;;;4.60;;
51566;SDS011;37657;53.182;5.638;2022-12-29T11:35:56;18.55;;;5.40;;
51566;SDS011;37657;53.182;5.638;2022-12-29T11:38:28;9.98;;;4.20;;
51566;SDS011;37657;53.182;5.638;2022-12-29T11:41:05;11.75;;;4.28;;
51566;SDS011;37657;53.182;5.638;2022-12-29T11:43:40;12.77;;;4.20;;
51566;SDS011;37657;53.182;5.638;2022-12-29T11:46:12;19.42;;;5.68;;
51566;SDS011;37657;53.182;5.638;2022-12-29T11:48:44;19.17;;;5.82;;
51566;SDS011;37657;53.182;5.638;2022-12-29T11:51:12;8.40;;;4.45;;
51566;SDS011;37657;53.182;5.638;2022-12-29T11:53:47;10.05;;;4.30;;
51566;SDS011;37657;53.182;5.638;2022-12-29T11:56:16;7.35;;;3.75;;
51566;SDS011;37657;53.182;5.638;2022-12-29T11:58:44;12.60;;;4.40;;
51566;SDS011;37657;53.182;5.638;2022-12-29T12:01:20;13.43;;;5.00;;
51566;SDS011;37657;53.182;5.638;2022-12-29T12:04:10;13.02;;;5.57;;
51566;SDS011;37657;53.182;5.638;2022-12-29T12:06:43;10.45;;;4.25;;
51566;SDS011;37657;53.182;5.638;2022-12-29T12:09:16;10.05;;;4.05;;
51566;SDS011;37657;53.182;5.638;2022-12-29T12:11:48;10.23;;;4.13;;
51566;SDS011;37657;53.182;5.638;2022-12-29T12:17:08;9.02;;;4.53;;
51566;SDS011;37657;53.182;5.638;2022-12-29T12:19:48;6.50;;;3.15;;
51566;SDS011;37657;53.182;5.638;2022-12-29T12:22:33;7.88;;;3.60;;
51566;SDS011;37657;53.182;5.638;2022-12-29T12:27:43;10.18;;;4.97;;
51566;SDS011;37657;53.182;5.638;2022-12-29T12:30:22;14.57;;;4.95;;
51566;SDS011;37657;53.182;5.638;2022-12-29T12:44:18;11.63;;;3.75;;
51566;SDS011;37657;53.182;5.638;2022-12-29T12:47:07;15.45;;;4.13;;
51566;SDS011;37657;53.182;5.638;2022-12-29T12:50:08;6.22;;;3.33;;
51566;SDS011;37657;53.182;5.638;2022-12-29T12:52:53;17.08;;;6.57;;
51566;SDS011;37657;53.182;5.638;2022-12-29T12:55:46;7.83;;;3.60;;
51566;SDS011;37657;53.182;5.638;2022-12-29T12:58:30;11.10;;;3.47;;
51566;SDS011;37657;53.182;5.638;2022-12-29T13:07:32;6.13;;;2.72;;
51566;SDS011;37657;53.182;5.638;2022-12-29T13:18:37;6.00;;;3.40;;
51566;SDS011;37657;53.182;5.638;2022-12-29T13:27:37;10.13;;;3.53;;
51566;SDS011;37657;53.182;5.638;2022-12-29T13:30:18;9.52;;;3.85;;
51566;SDS011;37657;53.182;5.638;2022-12-29T13:35:53;8.98;;;4.00;;
51566;SDS011;37657;53.182;5.638;2022-12-29T13:38:25;6.28;;;3.08;;
51566;SDS011;37657;53.182;5.638;2022-12-29T13:41:14;11.30;;;3.83;;
51566;SDS011;37657;53.182;5.638;2022-12-29T13:43:55;7.93;;;3.55;;
51566;SDS011;37657;53.182;5.638;2022-12-29T13:46:24;17.00;;;4.05;;
51566;SDS011;37657;53.182;5.638;2022-12-29T13:48:55;11.95;;;3.15;;
51566;SDS011;37657;53.182;5.638;2022-12-29T13:51:27;9.35;;;3.78;;
51566;SDS011;37657;53.182;5.638;2022-12-29T14:02:11;8.32;;;3.72;;
51566;SDS011;37657;53.182;5.638;2022-12-29T14:05:01;7.43;;;2.70;;
51566;SDS011;37657;53.182;5.638;2022-12-29T14:07:29;8.43;;;3.42;;
51566;SDS011;37657;53.182;5.638;2022-12-29T14:10:02;9.18;;;3.20;;
51566;SDS011;37657;53.182;5.638;2022-12-29T14:12:40;5.53;;;2.58;;
51566;SDS011;37657;53.182;5.638;2022-12-29T14:17:37;7.55;;;3.63;;
51566;SDS011;37657;53.182;5.638;2022-12-29T14:20:05;9.07;;;3.40;;
51566;SDS011;37657;53.182;5.638;2022-12-29T14:23:15;25.73;;;5.32;;
51566;SDS011;37657;53.182;5.638;2022-12-29T14:28:31;10.25;;;4.22;;
51566;SDS011;37657;53.182;5.638;2022-12-29T14:31:02;7.60;;;3.22;;
51566;SDS011;37657;53.182;5.638;2022-12-29T14:33:30;25.15;;;4.75;;
51566;SDS011;37657;53.182;5.638;2022-12-29T14:36:18;5.28;;;2.90;;
51566;SDS011;37657;53.182;5.638;2022-12-29T14:38:44;11.30;;;4.03;;
51566;SDS011;37657;53.182;5.638;2022-12-29T14:41:27;11.93;;;4.57;;
51566;SDS011;37657;53.182;5.638;2022-12-29T14:46:45;9.82;;;4.13;;
51566;SDS011;37657;53.182;5.638;2022-12-29T14:49:20;10.85;;;4.13;;
51566;SDS011;37657;53.182;5.638;2022-12-29T14:51:48;13.23;;;4.53;;
51566;SDS011;37657;53.182;5.638;2022-12-29T14:57:02;11.77;;;4.38;;
51566;SDS011;37657;53.182;5.638;2022-12-29T14:59:30;13.15;;;4.30;;
51566;SDS011;37657;53.182;5.638;2022-12-29T15:01:58;11.90;;;4.32;;
51566;SDS011;37657;53.182;5.638;2022-12-29T15:04:31;9.10;;;3.90;;
51566;SDS011;37657;53.182;5.638;2022-12-29T15:06:59;10.27;;;4.45;;
51566;SDS011;37657;53.182;5.638;2022-12-29T15:12:28;12.73;;;4.68;;
51566;SDS011;37657;53.182;5.638;2022-12-29T15:15:00;11.02;;;4.68;;
51566;SDS011;37657;53.182;5.638;2022-12-29T15:17:29;13.90;;;4.32;;
51566;SDS011;37657;53.182;5.638;2022-12-29T15:19:57;6.05;;;3.90;;
51566;SDS011;37657;53.182;5.638;2022-12-29T15:22:25;10.35;;;4.22;;
51566;SDS011;37657;53.182;5.638;2022-12-29T15:24:52;11.95;;;4.90;;
51566;SDS011;37657;53.182;5.638;2022-12-29T15:27:20;9.75;;;3.92;;
51566;SDS011;37657;53.182;5.638;2022-12-29T15:29:55;15.50;;;4.25;;
51566;SDS011;37657;53.182;5.638;2022-12-29T15:32:23;16.98;;;4.97;;
51566;SDS011;37657;53.182;5.638;2022-12-29T15:34:51;7.88;;;4.03;;
51566;SDS011;37657;53.182;5.638;2022-12-29T15:37:27;8.85;;;3.20;;
51566;SDS011;37657;53.182;5.638;2022-12-29T15:39:56;15.98;;;5.00;;
51566;SDS011;37657;53.182;5.638;2022-12-29T15:45:10;7.80;;;3.40;;
51566;SDS011;37657;53.182;5.638;2022-12-29T15:47:37;7.22;;;3.25;;
51566;SDS011;37657;53.182;5.638;2022-12-29T15:52:42;6.00;;;3.10;;
51566;SDS011;37657;53.182;5.638;2022-12-29T15:55:17;6.90;;;3.45;;
51566;SDS011;37657;53.182;5.638;2022-12-29T15:57:59;6.45;;;3.53;;
51566;SDS011;37657;53.182;5.638;2022-12-29T16:00:28;14.88;;;3.90;;
51566;SDS011;37657;53.182;5.638;2022-12-29T16:03:03;7.97;;;3.30;;
51566;SDS011;37657;53.182;5.638;2022-12-29T16:05:33;22.10;;;4.68;;
51566;SDS011;37657;53.182;5.638;2022-12-29T16:08:00;6.68;;;3.72;;
51566;SDS011;37657;53.182;5.638;2022-12-29T16:10:28;20.90;;;5.00;;
51566;SDS011;37657;53.182;5.638;2022-12-29T16:13:25;8.38;;;3.78;;
51566;SDS011;37657;53.182;5.638;2022-12-29T16:15:58;10.90;;;3.92;;
51566;SDS011;37657;53.182;5.638;2022-12-29T16:18:28;9.13;;;3.75;;
51566;SDS011;37657;53.182;5.638;2022-12-29T16:20:57;13.60;;;5.20;;
51566;SDS011;37657;53.182;5.638;2022-12-29T16:23:27;11.82;;;4.72;;
51566;SDS011;37657;53.182;5.638;2022-12-29T16:25:55;11.75;;;3.97;;
51566;SDS011;37657;53.182;5.638;2022-12-29T16:28:35;12.57;;;4.45;;
51566;SDS011;37657;53.182;5.638;2022-12-29T16:31:13;25.15;;;4.43;;
51566;SDS011;37657;53.182;5.638;2022-12-29T16:33:45;7.63;;;3.55;;
51566;SDS011;37657;53.182;5.638;2022-12-29T16:36:23;11.70;;;4.07;;
51566;SDS011;37657;53.182;5.638;2022-12-29T16:41:53;11.73;;;3.75;;
51566;SDS011;37657;53.182;5.638;2022-12-29T16:44:24;9.40;;;3.70;;
51566;SDS011;37657;53.182;5.638;2022-12-29T16:47:00;8.18;;;4.43;;
51566;SDS011;37657;53.182;5.638;2022-12-29T16:49:28;7.03;;;3.25;;
51566;SDS011;37657;53.182;5.638;2022-12-29T16:51:56;12.02;;;4.45;;
51566;SDS011;37657;53.182;5.638;2022-12-29T16:54:28;7.60;;;4.10;;
51566;SDS011;37657;53.182;5.638;2022-12-29T16:56:58;12.10;;;4.60;;
51566;SDS011;37657;53.182;5.638;2022-12-29T16:59:29;20.23;;;5.50;;
51566;SDS011;37657;53.182;5.638;2022-12-29T17:02:13;11.30;;;4.78;;
51566;SDS011;37657;53.182;5.638;2022-12-29T17:04:41;17.27;;;6.45;;
51566;SDS011;37657;53.182;5.638;2022-12-29T17:07:17;8.32;;;4.15;;
51566;SDS011;37657;53.182;5.638;2022-12-29T17:09:47;12.40;;;5.47;;
51566;SDS011;37657;53.182;5.638;2022-12-29T17:12:17;9.13;;;3.90;;
51566;SDS011;37657;53.182;5.638;2022-12-29T17:14:46;11.32;;;4.53;;
51566;SDS011;37657;53.182;5.638;2022-12-29T17:17:24;13.85;;;5.45;;
51566;SDS011;37657;53.182;5.638;2022-12-29T17:20:04;8.55;;;4.45;;
51566;SDS011;37657;53.182;5.638;2022-12-29T17:22:40;23.92;;;5.93;;
51566;SDS011;37657;53.182;5.638;2022-12-29T17:25:06;8.52;;;3.80;;